sensor_id;sensor_type;location;lat;lon;timestamp;temperature;humidity
5134;DHT22;2585;48.696;10.066;2024-03-23T00:55:43;3.90;85.60
5134;DHT22;2585;48.696;10.066;2024-03-23T00:58:09;3.90;85.30
5134;DHT22;2585;48.696;10.066;2024-03-23T01:00:35;3.90;85.20
5134;DHT22;2585;48.696;10.066;2024-03-23T01:03:01;3.80;85.40
5134;DHT22;2585;48.696;10.066;2024-03-23T01:05:27;3.80;86.50
5134;DHT22;2585;48.696;10.066;2024-03-23T01:07:53;3.80;87.60
5134;DHT22;2585;48.696;10.066;2024-03-23T01:10:18;3.80;88.00
5134;DHT22;2585;48.696;10.066;2024-03-23T01:12:44;3.80;87.80
5134;DHT22;2585;48.696;10.066;2024-03-23T01:15:10;3.80;88.40
5134;DHT22;2585;48.696;10.066;2024-03-23T01:17:36;3.90;89.10
5134;DHT22;2585;48.696;10.066;2024-03-23T01:20:02;3.90;90.00
5134;DHT22;2585;48.696;10.066;2024-03-23T01:22:28;3.90;90.40
5134;DHT22;2585;48.696;10.066;2024-03-23T01:24:54;4.00;90.80
5134;DHT22;2585;48.696;10.066;2024-03-23T01:27:20;4.00;91.00
5134;DHT22;2585;48.696;10.066;2024-03-23T01:29:46;4.10;91.30
5134;DHT22;2585;48.696;10.066;2024-03-23T01:32:11;4.10;91.40
5134;DHT22;2585;48.696;10.066;2024-03-23T01:34:37;4.10;91.60
5134;DHT22;2585;48.696;10.066;2024-03-23T01:37:03;4.00;91.70
5134;DHT22;2585;48.696;10.066;2024-03-23T01:39:30;4.00;91.80
5134;DHT22;2585;48.696;10.066;2024-03-23T01:41:56;4.00;91.80
5134;DHT22;2585;48.696;10.066;2024-03-23T01:44:22;4.00;91.80
5134;DHT22;2585;48.696;10.066;2024-03-23T01:46:47;4.00;91.80
5134;DHT22;2585;48.696;10.066;2024-03-23T01:49:14;3.90;91.80
5134;DHT22;2585;48.696;10.066;2024-03-23T01:51:40;3.90;91.80
5134;DHT22;2585;48.696;10.066;2024-03-23T01:54:07;3.90;91.90
5134;DHT22;2585;48.696;10.066;2024-03-23T01:56:34;3.90;91.90
5134;DHT22;2585;48.696;10.066;2024-03-23T01:59:06;3.90;92.00
5134;DHT22;2585;48.696;10.066;2024-03-23T02:01:32;3.80;91.90
5134;DHT22;2585;48.696;10.066;2024-03-23T02:03:58;3.80;91.90
5134;DHT22;2585;48.696;10.066;2024-03-23T02:06:24;3.80;91.90
5134;DHT22;2585;48.696;10.066;2024-03-23T02:08:51;3.70;91.90
5134;DHT22;2585;48.696;10.066;2024-03-23T02:11:17;3.70;91.80
5134;DHT22;2585;48.696;10.066;2024-03-23T02:13:42;3.60;91.90
5134;DHT22;2585;48.696;10.066;2024-03-23T02:16:08;3.60;92.10
5134;DHT22;2585;48.696;10.066;2024-03-23T02:18:34;3.60;92.20
5134;DHT22;2585;48.696;10.066;2024-03-23T02:21:00;3.60;92.30
5134;DHT22;2585;48.696;10.066;2024-03-23T02:23:26;3.60;92.30
5134;DHT22;2585;48.696;10.066;2024-03-23T02:25:52;3.60;92.40
5134;DHT22;2585;48.696;10.066;2024-03-23T02:28:20;3.60;92.50
5134;DHT22;2585;48.696;10.066;2024-03-23T02:30:51;3.70;92.60
5134;DHT22;2585;48.696;10.066;2024-03-23T02:33:17;3.70;92.70
5134;DHT22;2585;48.696;10.066;2024-03-23T02:35:43;3.70;92.80
5134;DHT22;2585;48.696;10.066;2024-03-23T02:38:09;3.70;92.90
5134;DHT22;2585;48.696;10.066;2024-03-23T02:40:35;3.70;93.00
5134;DHT22;2585;48.696;10.066;2024-03-23T02:43:03;3.70;93.00
5134;DHT22;2585;48.696;10.066;2024-03-23T02:45:30;3.80;93.20
5134;DHT22;2585;48.696;10.066;2024-03-23T02:47:56;3.80;93.30
5134;DHT22;2585;48.696;10.066;2024-03-23T02:50:22;3.80;93.30
5134;DHT22;2585;48.696;10.066;2024-03-23T02:52:48;3.90;93.40
5134;DHT22;2585;48.696;10.066;2024-03-23T02:55:14;3.80;93.40
5134;DHT22;2585;48.696;10.066;2024-03-23T02:57:41;3.90;93.60
5134;DHT22;2585;48.696;10.066;2024-03-23T03:00:08;4.00;93.70
5134;DHT22;2585;48.696;10.066;2024-03-23T03:02:34;4.00;93.70
5134;DHT22;2585;48.696;10.066;2024-03-23T03:05:00;4.00;93.70
5134;DHT22;2585;48.696;10.066;2024-03-23T03:07:26;4.00;93.70
5134;DHT22;2585;48.696;10.066;2024-03-23T03:09:52;4.00;93.70
5134;DHT22;2585;48.696;10.066;2024-03-23T03:12:18;4.10;93.80
5134;DHT22;2585;48.696;10.066;2024-03-23T03:14:44;4.10;93.80
5134;DHT22;2585;48.696;10.066;2024-03-23T03:17:09;4.10;93.90
5134;DHT22;2585;48.696;10.066;2024-03-23T03:19:35;4.20;93.90
5134;DHT22;2585;48.696;10.066;2024-03-23T03:22:01;4.30;94.00
5134;DHT22;2585;48.696;10.066;2024-03-23T03:24:27;4.30;94.00
5134;DHT22;2585;48.696;10.066;2024-03-23T03:26:53;4.30;94.00
5134;DHT22;2585;48.696;10.066;2024-03-23T03:29:19;4.40;94.00
5134;DHT22;2585;48.696;10.066;2024-03-23T03:31:45;4.40;94.00
5134;DHT22;2585;48.696;10.066;2024-03-23T03:34:10;4.40;94.00
5134;DHT22;2585;48.696;10.066;2024-03-23T03:36:36;4.40;94.10
5134;DHT22;2585;48.696;10.066;2024-03-23T03:39:02;4.50;94.10
5134;DHT22;2585;48.696;10.066;2024-03-23T03:41:29;4.50;94.10
5134;DHT22;2585;48.696;10.066;2024-03-23T03:43:55;4.50;94.10
5134;DHT22;2585;48.696;10.066;2024-03-23T03:46:21;4.50;94.10
5134;DHT22;2585;48.696;10.066;2024-03-23T03:48:47;4.40;94.10
5134;DHT22;2585;48.696;10.066;2024-03-23T03:51:14;4.40;94.10
5134;DHT22;2585;48.696;10.066;2024-03-23T03:53:40;4.40;94.10
5134;DHT22;2585;48.696;10.066;2024-03-23T03:56:06;4.40;94.10
5134;DHT22;2585;48.696;10.066;2024-03-23T03:58:32;4.40;94.20
5134;DHT22;2585;48.696;10.066;2024-03-23T04:00:58;4.40;94.20
5134;DHT22;2585;48.696;10.066;2024-03-23T04:03:24;4.30;94.10
5134;DHT22;2585;48.696;10.066;2024-03-23T04:05:54;4.30;94.10
5134;DHT22;2585;48.696;10.066;2024-03-23T04:08:20;4.30;94.20
5134;DHT22;2585;48.696;10.066;2024-03-23T04:10:46;4.30;94.20
5134;DHT22;2585;48.696;10.066;2024-03-23T04:13:13;4.40;94.30
5134;DHT22;2585;48.696;10.066;2024-03-23T04:15:39;4.50;94.40
5134;DHT22;2585;48.696;10.066;2024-03-23T04:18:05;4.50;94.40
5134;DHT22;2585;48.696;10.066;2024-03-23T04:20:31;4.60;94.50
5134;DHT22;2585;48.696;10.066;2024-03-23T04:23:01;4.50;94.50
5134;DHT22;2585;48.696;10.066;2024-03-23T04:25:27;4.50;94.40
5134;DHT22;2585;48.696;10.066;2024-03-23T04:27:53;4.50;94.40
5134;DHT22;2585;48.696;10.066;2024-03-23T04:30:18;4.40;94.40
5134;DHT22;2585;48.696;10.066;2024-03-23T04:32:45;4.30;94.40
5134;DHT22;2585;48.696;10.066;2024-03-23T04:35:11;4.40;94.40
5134;DHT22;2585;48.696;10.066;2024-03-23T04:37:37;4.30;94.40
5134;DHT22;2585;48.696;10.066;2024-03-23T04:40:04;4.30;94.50
5134;DHT22;2585;48.696;10.066;2024-03-23T04:42:32;4.30;94.50
5134;DHT22;2585;48.696;10.066;2024-03-23T04:44:57;4.20;94.50
5134;DHT22;2585;48.696;10.066;2024-03-23T04:47:23;4.30;94.60
5134;DHT22;2585;48.696;10.066;2024-03-23T04:49:49;4.20;94.60
5134;DHT22;2585;48.696;10.066;2024-03-23T04:52:16;4.20;94.60
5134;DHT22;2585;48.696;10.066;2024-03-23T04:54:42;4.20;94.60
5134;DHT22;2585;48.696;10.066;2024-03-23T04:57:08;4.10;94.60
5134;DHT22;2585;48.696;10.066;2024-03-23T04:59:34;4.10;94.60
5134;DHT22;2585;48.696;10.066;2024-03-23T05:02:00;4.10;94.60
5134;DHT22;2585;48.696;10.066;2024-03-23T05:04:26;4.00;94.60
5134;DHT22;2585;48.696;10.066;2024-03-23T05:06:52;4.00;94.60
5134;DHT22;2585;48.696;10.066;2024-03-23T05:09:18;4.00;94.60
5134;DHT22;2585;48.696;10.066;2024-03-23T05:11:44;4.00;94.70
5134;DHT22;2585;48.696;10.066;2024-03-23T05:14:15;4.00;94.70
5134;DHT22;2585;48.696;10.066;2024-03-23T05:16:41;4.00;94.70
5134;DHT22;2585;48.696;10.066;2024-03-23T05:19:07;4.00;94.70
5134;DHT22;2585;48.696;10.066;2024-03-23T05:21:33;4.10;94.80
5134;DHT22;2585;48.696;10.066;2024-03-23T05:23:59;4.10;94.80
5134;DHT22;2585;48.696;10.066;2024-03-23T05:26:25;4.10;94.80
5134;DHT22;2585;48.696;10.066;2024-03-23T05:28:51;4.30;94.90
5134;DHT22;2585;48.696;10.066;2024-03-23T05:31:27;4.40;95.00
5134;DHT22;2585;48.696;10.066;2024-03-23T05:33:53;4.50;95.10
5134;DHT22;2585;48.696;10.066;2024-03-23T05:36:19;4.70;95.10
5134;DHT22;2585;48.696;10.066;2024-03-23T05:38:44;4.80;95.20
5134;DHT22;2585;48.696;10.066;2024-03-23T05:41:10;4.90;95.20
5134;DHT22;2585;48.696;10.066;2024-03-23T05:43:36;5.10;95.30
5134;DHT22;2585;48.696;10.066;2024-03-23T05:46:02;5.20;95.40
5134;DHT22;2585;48.696;10.066;2024-03-23T05:48:30;5.30;95.40
5134;DHT22;2585;48.696;10.066;2024-03-23T05:50:56;5.40;95.40
5134;DHT22;2585;48.696;10.066;2024-03-23T05:53:23;5.50;95.50
5134;DHT22;2585;48.696;10.066;2024-03-23T05:55:50;5.60;95.50
5134;DHT22;2585;48.696;10.066;2024-03-23T05:58:17;6.30;91.10
5134;DHT22;2585;48.696;10.066;2024-03-23T06:00:44;7.30;91.40
5134;DHT22;2585;48.696;10.066;2024-03-23T06:03:10;7.80;91.50
5134;DHT22;2585;48.696;10.066;2024-03-23T06:05:39;8.10;91.60
5134;DHT22;2585;48.696;10.066;2024-03-23T06:08:05;8.10;91.50
5134;DHT22;2585;48.696;10.066;2024-03-23T06:10:33;8.20;91.50
5134;DHT22;2585;48.696;10.066;2024-03-23T06:12:59;8.10;91.40
5134;DHT22;2585;48.696;10.066;2024-03-23T06:15:25;8.10;91.40
5134;DHT22;2585;48.696;10.066;2024-03-23T06:17:51;8.00;91.40
5134;DHT22;2585;48.696;10.066;2024-03-23T06:20:17;7.90;91.40
5134;DHT22;2585;48.696;10.066;2024-03-23T06:22:43;7.90;91.50
5134;DHT22;2585;48.696;10.066;2024-03-23T06:25:09;7.90;91.50
5134;DHT22;2585;48.696;10.066;2024-03-23T06:27:35;7.80;91.50
5134;DHT22;2585;48.696;10.066;2024-03-23T06:30:01;7.70;91.50
5134;DHT22;2585;48.696;10.066;2024-03-23T06:32:28;7.70;91.50
5134;DHT22;2585;48.696;10.066;2024-03-23T06:34:55;7.60;91.40
5134;DHT22;2585;48.696;10.066;2024-03-23T06:37:21;7.50;91.40
5134;DHT22;2585;48.696;10.066;2024-03-23T06:39:47;7.50;91.40
5134;DHT22;2585;48.696;10.066;2024-03-23T06:42:12;7.40;91.30
5134;DHT22;2585;48.696;10.066;2024-03-23T06:44:39;7.40;91.30
5134;DHT22;2585;48.696;10.066;2024-03-23T06:47:05;7.40;91.30
5134;DHT22;2585;48.696;10.066;2024-03-23T06:49:31;7.30;91.30
5134;DHT22;2585;48.696;10.066;2024-03-23T06:51:57;7.30;91.30
5134;DHT22;2585;48.696;10.066;2024-03-23T06:54:24;7.30;91.30
5134;DHT22;2585;48.696;10.066;2024-03-23T06:56:50;7.30;91.40
5134;DHT22;2585;48.696;10.066;2024-03-23T06:59:16;7.20;91.30
5134;DHT22;2585;48.696;10.066;2024-03-23T07:01:42;7.30;91.30
5134;DHT22;2585;48.696;10.066;2024-03-23T07:04:08;7.30;91.30
5134;DHT22;2585;48.696;10.066;2024-03-23T07:06:34;7.20;91.20
5134;DHT22;2585;48.696;10.066;2024-03-23T07:09:00;7.20;91.20
5134;DHT22;2585;48.696;10.066;2024-03-23T07:11:25;7.20;91.20
5134;DHT22;2585;48.696;10.066;2024-03-23T07:13:53;7.10;91.20
5134;DHT22;2585;48.696;10.066;2024-03-23T07:16:21;7.00;91.10
5134;DHT22;2585;48.696;10.066;2024-03-23T07:18:47;7.00;91.10
5134;DHT22;2585;48.696;10.066;2024-03-23T07:21:14;7.00;91.10
5134;DHT22;2585;48.696;10.066;2024-03-23T07:23:42;7.00;91.10
5134;DHT22;2585;48.696;10.066;2024-03-23T07:26:10;7.10;91.10
5134;DHT22;2585;48.696;10.066;2024-03-23T07:28:36;7.10;91.10
5134;DHT22;2585;48.696;10.066;2024-03-23T07:31:21;7.10;91.10
5134;DHT22;2585;48.696;10.066;2024-03-23T07:33:48;7.10;91.10
5134;DHT22;2585;48.696;10.066;2024-03-23T07:36:15;7.10;91.10
5134;DHT22;2585;48.696;10.066;2024-03-23T07:38:41;7.10;91.10
5134;DHT22;2585;48.696;10.066;2024-03-23T07:41:25;7.10;91.10
5134;DHT22;2585;48.696;10.066;2024-03-23T07:43:53;7.20;91.10
5134;DHT22;2585;48.696;10.066;2024-03-23T07:46:20;7.20;91.10
5134;DHT22;2585;48.696;10.066;2024-03-23T07:48:46;7.30;91.10
5134;DHT22;2585;48.696;10.066;2024-03-23T07:51:21;7.40;91.00
5134;DHT22;2585;48.696;10.066;2024-03-23T07:53:47;7.40;91.00
5134;DHT22;2585;48.696;10.066;2024-03-23T07:56:14;7.50;91.00
5134;DHT22;2585;48.696;10.066;2024-03-23T07:58:41;7.60;90.90
5134;DHT22;2585;48.696;10.066;2024-03-23T08:03:35;7.70;90.60
5134;DHT22;2585;48.696;10.066;2024-03-23T08:06:13;7.80;90.80
5134;DHT22;2585;48.696;10.066;2024-03-23T08:08:41;7.60;90.60
5134;DHT22;2585;48.696;10.066;2024-03-23T08:11:07;7.30;90.40
5134;DHT22;2585;48.696;10.066;2024-03-23T08:13:34;7.30;90.50
5134;DHT22;2585;48.696;10.066;2024-03-23T08:16:02;7.30;90.50
5134;DHT22;2585;48.696;10.066;2024-03-23T08:18:29;7.30;90.60
5134;DHT22;2585;48.696;10.066;2024-03-23T08:20:59;7.40;90.60
5134;DHT22;2585;48.696;10.066;2024-03-23T08:23:29;7.40;90.60
5134;DHT22;2585;48.696;10.066;2024-03-23T08:26:00;7.40;90.50
5134;DHT22;2585;48.696;10.066;2024-03-23T08:28:26;7.50;90.60
5134;DHT22;2585;48.696;10.066;2024-03-23T08:30:53;7.30;90.40
5134;DHT22;2585;48.696;10.066;2024-03-23T08:33:19;7.40;90.50
5134;DHT22;2585;48.696;10.066;2024-03-23T08:35:59;7.60;90.60
5134;DHT22;2585;48.696;10.066;2024-03-23T08:38:25;7.40;90.30
5134;DHT22;2585;48.696;10.066;2024-03-23T08:41:05;7.40;90.10
5134;DHT22;2585;48.696;10.066;2024-03-23T08:43:32;7.40;90.30
5134;DHT22;2585;48.696;10.066;2024-03-23T08:46:12;7.40;90.10
5134;DHT22;2585;48.696;10.066;2024-03-23T08:48:40;7.40;89.60
5134;DHT22;2585;48.696;10.066;2024-03-23T08:51:07;7.60;89.60
5134;DHT22;2585;48.696;10.066;2024-03-23T08:53:37;7.80;90.20
5134;DHT22;2585;48.696;10.066;2024-03-23T08:56:03;8.00;90.00
5134;DHT22;2585;48.696;10.066;2024-03-23T08:58:30;8.20;89.50
5134;DHT22;2585;48.696;10.066;2024-03-23T09:01:02;8.20;88.30
5134;DHT22;2585;48.696;10.066;2024-03-23T09:03:29;7.90;87.50
5134;DHT22;2585;48.696;10.066;2024-03-23T09:05:55;7.90;87.80
5134;DHT22;2585;48.696;10.066;2024-03-23T09:08:21;7.80;87.10
5134;DHT22;2585;48.696;10.066;2024-03-23T09:10:47;8.00;87.50
5134;DHT22;2585;48.696;10.066;2024-03-23T09:13:14;8.10;78.70
5134;DHT22;2585;48.696;10.066;2024-03-23T09:15:50;8.10;75.00
5134;DHT22;2585;48.696;10.066;2024-03-23T09:18:16;8.10;81.20
5134;DHT22;2585;48.696;10.066;2024-03-23T09:20:42;8.00;80.20
5134;DHT22;2585;48.696;10.066;2024-03-23T09:23:08;7.80;82.10
5134;DHT22;2585;48.696;10.066;2024-03-23T09:25:38;7.20;78.20
5134;DHT22;2585;48.696;10.066;2024-03-23T09:28:05;6.70;86.10
5134;DHT22;2585;48.696;10.066;2024-03-23T09:30:35;6.40;87.70
5134;DHT22;2585;48.696;10.066;2024-03-23T09:33:03;6.30;88.70
5134;DHT22;2585;48.696;10.066;2024-03-23T09:35:29;6.10;93.70
5134;DHT22;2585;48.696;10.066;2024-03-23T09:37:55;6.10;93.00
5134;DHT22;2585;48.696;10.066;2024-03-23T09:40:21;6.40;86.40
5134;DHT22;2585;48.696;10.066;2024-03-23T09:42:51;6.50;82.90
5134;DHT22;2585;48.696;10.066;2024-03-23T09:45:20;6.80;85.00
5134;DHT22;2585;48.696;10.066;2024-03-23T09:47:47;7.20;82.90
5134;DHT22;2585;48.696;10.066;2024-03-23T09:50:13;7.30;75.30
5134;DHT22;2585;48.696;10.066;2024-03-23T09:52:40;7.70;76.80
5134;DHT22;2585;48.696;10.066;2024-03-23T09:55:08;8.20;68.80
5134;DHT22;2585;48.696;10.066;2024-03-23T09:57:34;8.10;11.80
5134;DHT22;2585;48.696;10.066;2024-03-23T10:00:01;7.80;1.00
5134;DHT22;2585;48.696;10.066;2024-03-23T10:02:28;7.60;16.60
5134;DHT22;2585;48.696;10.066;2024-03-23T10:04:54;8.00;1.00
5134;DHT22;2585;48.696;10.066;2024-03-23T10:07:20;8.40;1.00
5134;DHT22;2585;48.696;10.066;2024-03-23T10:09:47;9.40;1.00
5134;DHT22;2585;48.696;10.066;2024-03-23T10:12:18;9.30;1.00
5134;DHT22;2585;48.696;10.066;2024-03-23T10:14:44;9.50;1.90
5134;DHT22;2585;48.696;10.066;2024-03-23T10:17:17;9.60;22.60
5134;DHT22;2585;48.696;10.066;2024-03-23T10:19:49;10.10;23.10
5134;DHT22;2585;48.696;10.066;2024-03-23T10:22:18;9.90;53.50
5134;DHT22;2585;48.696;10.066;2024-03-23T10:24:45;9.60;31.10
5134;DHT22;2585;48.696;10.066;2024-03-23T10:27:18;9.50;1.00
5134;DHT22;2585;48.696;10.066;2024-03-23T10:29:48;9.90;1.00
5134;DHT22;2585;48.696;10.066;2024-03-23T10:32:16;9.80;1.00
5134;DHT22;2585;48.696;10.066;2024-03-23T10:34:42;9.90;63.20
5134;DHT22;2585;48.696;10.066;2024-03-23T10:37:08;10.10;19.80
5134;DHT22;2585;48.696;10.066;2024-03-23T10:42:02;10.30;47.80
5134;DHT22;2585;48.696;10.066;2024-03-23T10:44:29;10.00;1.00
5134;DHT22;2585;48.696;10.066;2024-03-23T10:46:57;10.00;84.40
5134;DHT22;2585;48.696;10.066;2024-03-23T10:49:34;10.50;1.00
5134;DHT22;2585;48.696;10.066;2024-03-23T10:52:05;11.70;1.00
5134;DHT22;2585;48.696;10.066;2024-03-23T10:54:32;12.10;1.00
5134;DHT22;2585;48.696;10.066;2024-03-23T10:57:14;11.90;1.00
5134;DHT22;2585;48.696;10.066;2024-03-23T10:59:41;12.00;73.20
5134;DHT22;2585;48.696;10.066;2024-03-23T11:02:18;12.00;83.00
5134;DHT22;2585;48.696;10.066;2024-03-23T11:04:44;11.80;1.00
5134;DHT22;2585;48.696;10.066;2024-03-23T11:07:31;11.60;1.00
5134;DHT22;2585;48.696;10.066;2024-03-23T11:09:58;11.00;1.00
5134;DHT22;2585;48.696;10.066;2024-03-23T11:15:05;10.50;84.70
5134;DHT22;2585;48.696;10.066;2024-03-23T11:17:31;11.00;86.10
5134;DHT22;2585;48.696;10.066;2024-03-23T11:20:01;11.40;86.90
5134;DHT22;2585;48.696;10.066;2024-03-23T11:27:46;11.50;23.40
5134;DHT22;2585;48.696;10.066;2024-03-23T11:33:04;11.30;1.00
5134;DHT22;2585;48.696;10.066;2024-03-23T11:35:35;11.00;1.00
5134;DHT22;2585;48.696;10.066;2024-03-23T11:40:52;11.70;1.00
5134;DHT22;2585;48.696;10.066;2024-03-23T11:43:20;11.50;1.00
5134;DHT22;2585;48.696;10.066;2024-03-23T11:45:52;12.00;1.00
5134;DHT22;2585;48.696;10.066;2024-03-23T11:48:20;11.90;1.00
5134;DHT22;2585;48.696;10.066;2024-03-23T11:50:48;12.10;1.00
5134;DHT22;2585;48.696;10.066;2024-03-23T11:53:18;11.70;92.50
5134;DHT22;2585;48.696;10.066;2024-03-23T11:55:52;12.20;1.00
5134;DHT22;2585;48.696;10.066;2024-03-23T11:58:22;11.00;90.00
5134;DHT22;2585;48.696;10.066;2024-03-23T12:03:21;8.00;1.00
5134;DHT22;2585;48.696;10.066;2024-03-23T12:05:52;7.30;91.20
5134;DHT22;2585;48.696;10.066;2024-03-23T12:08:25;6.60;71.00
5134;DHT22;2585;48.696;10.066;2024-03-23T12:11:13;6.10;77.10
5134;DHT22;2585;48.696;10.066;2024-03-23T12:13:42;5.70;45.90
5134;DHT22;2585;48.696;10.066;2024-03-23T12:16:19;5.70;92.50
5134;DHT22;2585;48.696;10.066;2024-03-23T12:18:47;5.60;92.30
5134;DHT22;2585;48.696;10.066;2024-03-23T12:21:14;5.20;91.00
5134;DHT22;2585;48.696;10.066;2024-03-23T12:23:40;5.40;1.00
5134;DHT22;2585;48.696;10.066;2024-03-23T12:26:06;5.80;1.00
5134;DHT22;2585;48.696;10.066;2024-03-23T12:28:33;6.30;1.00
5134;DHT22;2585;48.696;10.066;2024-03-23T12:30:59;6.90;86.20
5134;DHT22;2585;48.696;10.066;2024-03-23T12:33:25;7.50;1.00
5134;DHT22;2585;48.696;10.066;2024-03-23T12:35:51;8.10;62.40
5134;DHT22;2585;48.696;10.066;2024-03-23T12:38:17;8.30;88.70
5134;DHT22;2585;48.696;10.066;2024-03-23T12:40:47;9.10;1.00
5134;DHT22;2585;48.696;10.066;2024-03-23T12:43:16;9.30;1.00
5134;DHT22;2585;48.696;10.066;2024-03-23T12:45:49;9.70;1.00
5134;DHT22;2585;48.696;10.066;2024-03-23T12:48:16;9.50;1.00
5134;DHT22;2585;48.696;10.066;2024-03-23T12:50:42;9.50;1.00
5134;DHT22;2585;48.696;10.066;2024-03-23T12:53:08;9.20;1.00
5134;DHT22;2585;48.696;10.066;2024-03-23T12:55:37;8.40;1.00
5134;DHT22;2585;48.696;10.066;2024-03-23T12:58:03;8.30;28.30
5134;DHT22;2585;48.696;10.066;2024-03-23T13:00:30;7.60;46.30
5134;DHT22;2585;48.696;10.066;2024-03-23T13:02:56;7.20;89.70
5134;DHT22;2585;48.696;10.066;2024-03-23T13:05:22;6.90;1.00
5134;DHT22;2585;48.696;10.066;2024-03-23T13:07:47;7.00;1.00
5134;DHT22;2585;48.696;10.066;2024-03-23T13:10:13;7.10;1.00
5134;DHT22;2585;48.696;10.066;2024-03-23T13:12:40;7.60;1.00
5134;DHT22;2585;48.696;10.066;2024-03-23T13:15:06;7.80;1.00
5134;DHT22;2585;48.696;10.066;2024-03-23T13:17:32;7.60;38.40
5134;DHT22;2585;48.696;10.066;2024-03-23T13:19:58;7.40;81.90
5134;DHT22;2585;48.696;10.066;2024-03-23T13:22:24;7.30;1.00
5134;DHT22;2585;48.696;10.066;2024-03-23T13:24:50;7.10;1.00
5134;DHT22;2585;48.696;10.066;2024-03-23T13:27:16;7.00;79.70
5134;DHT22;2585;48.696;10.066;2024-03-23T13:29:42;7.10;1.00
5134;DHT22;2585;48.696;10.066;2024-03-23T13:32:08;7.40;88.80
5134;DHT22;2585;48.696;10.066;2024-03-23T13:34:34;7.90;1.00
5134;DHT22;2585;48.696;10.066;2024-03-23T13:37:00;8.20;1.00
5134;DHT22;2585;48.696;10.066;2024-03-23T13:39:27;8.40;1.00
5134;DHT22;2585;48.696;10.066;2024-03-23T13:41:53;8.70;1.00
5134;DHT22;2585;48.696;10.066;2024-03-23T13:44:20;8.40;85.60
5134;DHT22;2585;48.696;10.066;2024-03-23T13:46:46;8.70;75.10
5134;DHT22;2585;48.696;10.066;2024-03-23T13:49:29;8.50;71.50
5134;DHT22;2585;48.696;10.066;2024-03-23T13:51:56;8.50;72.40
5134;DHT22;2585;48.696;10.066;2024-03-23T13:54:23;8.60;72.00
5134;DHT22;2585;48.696;10.066;2024-03-23T13:56:50;8.50;70.40
5134;DHT22;2585;48.696;10.066;2024-03-23T13:59:16;8.10;71.90
5134;DHT22;2585;48.696;10.066;2024-03-23T14:01:45;8.40;69.60
5134;DHT22;2585;48.696;10.066;2024-03-23T14:04:12;8.90;65.10
5134;DHT22;2585;48.696;10.066;2024-03-23T14:06:38;9.00;66.40
5134;DHT22;2585;48.696;10.066;2024-03-23T14:09:04;9.50;26.50
5134;DHT22;2585;48.696;10.066;2024-03-23T14:11:30;9.40;1.00
5134;DHT22;2585;48.696;10.066;2024-03-23T14:13:56;9.10;1.00
5134;DHT22;2585;48.696;10.066;2024-03-23T14:16:22;8.70;1.00
5134;DHT22;2585;48.696;10.066;2024-03-23T14:18:48;9.10;1.00
5134;DHT22;2585;48.696;10.066;2024-03-23T14:21:14;9.60;1.00
5134;DHT22;2585;48.696;10.066;2024-03-23T14:23:40;9.40;1.00
5134;DHT22;2585;48.696;10.066;2024-03-23T14:26:08;9.80;1.00
5134;DHT22;2585;48.696;10.066;2024-03-23T14:28:34;8.90;1.00
5134;DHT22;2585;48.696;10.066;2024-03-23T14:31:00;8.10;1.00
5134;DHT22;2585;48.696;10.066;2024-03-23T14:33:26;7.80;1.00
5134;DHT22;2585;48.696;10.066;2024-03-23T14:35:56;7.70;1.00
5134;DHT22;2585;48.696;10.066;2024-03-23T14:38:25;7.90;23.30
5134;DHT22;2585;48.696;10.066;2024-03-23T14:40:51;8.10;1.00
5134;DHT22;2585;48.696;10.066;2024-03-23T14:43:19;8.10;1.00
5134;DHT22;2585;48.696;10.066;2024-03-23T14:48:34;8.10;1.00
5134;DHT22;2585;48.696;10.066;2024-03-23T14:51:01;7.80;1.00
5134;DHT22;2585;48.696;10.066;2024-03-23T14:53:30;8.10;1.00
5134;DHT22;2585;48.696;10.066;2024-03-23T14:55:56;7.90;1.00
5134;DHT22;2585;48.696;10.066;2024-03-23T14:58:22;8.20;1.00
5134;DHT22;2585;48.696;10.066;2024-03-23T15:00:51;8.30;1.00
5134;DHT22;2585;48.696;10.066;2024-03-23T15:03:18;8.30;1.00
5134;DHT22;2585;48.696;10.066;2024-03-23T15:05:58;8.20;1.00
5134;DHT22;2585;48.696;10.066;2024-03-23T15:08:25;7.90;1.00
5134;DHT22;2585;48.696;10.066;2024-03-23T15:10:51;7.60;1.00
5134;DHT22;2585;48.696;10.066;2024-03-23T15:13:17;7.20;1.00
5134;DHT22;2585;48.696;10.066;2024-03-23T15:15:44;6.70;66.20
5134;DHT22;2585;48.696;10.066;2024-03-23T15:18:14;6.10;75.00
5134;DHT22;2585;48.696;10.066;2024-03-23T15:21:01;5.60;1.00
5134;DHT22;2585;48.696;10.066;2024-03-23T15:23:37;5.60;47.20
5134;DHT22;2585;48.696;10.066;2024-03-23T15:26:04;5.30;1.00
5134;DHT22;2585;48.696;10.066;2024-03-23T15:28:31;5.20;1.00
5134;DHT22;2585;48.696;10.066;2024-03-23T15:31:09;5.00;7.10
5134;DHT22;2585;48.696;10.066;2024-03-23T15:33:35;5.10;59.00
5134;DHT22;2585;48.696;10.066;2024-03-23T15:36:05;5.40;79.80
5134;DHT22;2585;48.696;10.066;2024-03-23T15:38:32;5.50;50.80
5134;DHT22;2585;48.696;10.066;2024-03-23T15:40:58;5.40;1.00
5134;DHT22;2585;48.696;10.066;2024-03-23T15:43:25;5.70;23.00
5134;DHT22;2585;48.696;10.066;2024-03-23T15:45:58;5.60;81.40
5134;DHT22;2585;48.696;10.066;2024-03-23T15:48:28;5.60;1.00
5134;DHT22;2585;48.696;10.066;2024-03-23T15:50:55;5.70;1.00
5134;DHT22;2585;48.696;10.066;2024-03-23T15:53:21;5.60;49.30
5134;DHT22;2585;48.696;10.066;2024-03-23T15:58:24;5.40;1.00
5134;DHT22;2585;48.696;10.066;2024-03-23T16:01:10;5.40;1.00
5134;DHT22;2585;48.696;10.066;2024-03-23T16:03:37;5.40;1.00
5134;DHT22;2585;48.696;10.066;2024-03-23T16:06:04;5.40;1.00
5134;DHT22;2585;48.696;10.066;2024-03-23T16:08:31;5.40;1.00
5134;DHT22;2585;48.696;10.066;2024-03-23T16:11:05;5.60;88.20
5134;DHT22;2585;48.696;10.066;2024-03-23T16:13:32;5.60;1.00
5134;DHT22;2585;48.696;10.066;2024-03-23T16:15:59;5.60;91.20
5134;DHT22;2585;48.696;10.066;2024-03-23T16:18:26;5.50;1.00
5134;DHT22;2585;48.696;10.066;2024-03-23T16:21:00;5.50;68.60
5134;DHT22;2585;48.696;10.066;2024-03-23T16:23:26;5.50;65.60
5134;DHT22;2585;48.696;10.066;2024-03-23T16:25:54;5.40;1.00
5134;DHT22;2585;48.696;10.066;2024-03-23T16:28:30;5.40;1.00
5134;DHT22;2585;48.696;10.066;2024-03-23T16:33:27;5.30;93.80
5134;DHT22;2585;48.696;10.066;2024-03-23T16:36:05;5.20;1.00
5134;DHT22;2585;48.696;10.066;2024-03-23T16:38:32;5.20;63.30
5134;DHT22;2585;48.696;10.066;2024-03-23T16:40:59;5.10;1.00
5134;DHT22;2585;48.696;10.066;2024-03-23T16:43:26;5.00;18.60
5134;DHT22;2585;48.696;10.066;2024-03-23T16:45:57;5.00;94.20
5134;DHT22;2585;48.696;10.066;2024-03-23T16:48:24;5.00;89.30
5134;DHT22;2585;48.696;10.066;2024-03-23T16:50:51;4.80;60.30
5134;DHT22;2585;48.696;10.066;2024-03-23T16:53:18;4.80;54.10
5134;DHT22;2585;48.696;10.066;2024-03-23T16:55:44;4.70;87.20
5134;DHT22;2585;48.696;10.066;2024-03-23T16:58:10;4.70;30.70
5134;DHT22;2585;48.696;10.066;2024-03-23T17:00:36;4.70;71.20
5134;DHT22;2585;48.696;10.066;2024-03-23T17:03:05;4.70;3.00
5134;DHT22;2585;48.696;10.066;2024-03-23T17:05:38;4.70;1.00
5134;DHT22;2585;48.696;10.066;2024-03-23T17:08:04;4.80;1.00
5134;DHT22;2585;48.696;10.066;2024-03-23T17:10:30;4.80;64.20
5134;DHT22;2585;48.696;10.066;2024-03-23T17:12:56;4.80;28.60
5134;DHT22;2585;48.696;10.066;2024-03-23T17:15:22;4.80;67.60
5134;DHT22;2585;48.696;10.066;2024-03-23T17:17:48;4.80;1.00
5134;DHT22;2585;48.696;10.066;2024-03-23T17:20:14;4.80;1.00
5134;DHT22;2585;48.696;10.066;2024-03-23T17:22:41;4.80;1.00
5134;DHT22;2585;48.696;10.066;2024-03-23T17:25:07;4.80;48.40
5134;DHT22;2585;48.696;10.066;2024-03-23T17:27:34;4.80;26.90
5134;DHT22;2585;48.696;10.066;2024-03-23T17:30:00;4.70;1.00